createdAt,value
2017-05-12T00:01:43.949Z,1.66
2017-05-12T00:04:12.286Z,1.86
2017-05-12T00:06:40.574Z,1.82
2017-05-12T00:09:09.637Z,1.92
2017-05-12T00:11:38.725Z,2.22
2017-05-12T00:14:07.790Z,1.54
2017-05-12T00:16:36.880Z,1.60
2017-05-12T00:19:05.224Z,2.16
2017-05-12T00:21:33.521Z,2.00
2017-05-12T00:24:01.821Z,2.54
2017-05-12T00:26:30.165Z,2.08
2017-05-12T00:28:58.473Z,1.68
2017-05-12T00:31:26.769Z,1.78
2017-05-12T00:33:55.118Z,1.88
2017-05-12T00:36:23.418Z,1.78
2017-05-12T00:38:51.716Z,1.78
2017-05-12T00:41:20.822Z,1.58
2017-05-12T00:43:49.125Z,2.06
2017-05-12T00:46:17.432Z,2.40
2017-05-12T00:48:45.774Z,2.00
2017-05-12T00:51:14.070Z,1.72
2017-05-12T00:53:42.373Z,2.14
2017-05-12T00:56:10.709Z,2.20
2017-05-12T00:58:39.006Z,1.40
2017-05-12T01:01:07.308Z,2.16
2017-05-12T01:03:35.634Z,1.90
2017-05-12T01:06:03.931Z,1.98
2017-05-12T01:08:32.249Z,2.12
2017-05-12T01:11:00.582Z,2.34
2017-05-12T01:13:28.881Z,2.14
2017-05-12T01:15:57.181Z,2.40
2017-05-12T01:18:25.522Z,2.08
2017-05-12T01:20:53.827Z,2.24
2017-05-12T01:23:23.661Z,1.94
2017-05-12T01:25:52.729Z,2.20
2017-05-12T01:28:21.021Z,2.40
2017-05-12T01:30:49.362Z,2.42
2017-05-12T01:33:17.757Z,2.80
2017-05-12T01:35:46.057Z,2.68
2017-05-12T01:38:14.406Z,2.78
2017-05-12T01:40:42.698Z,2.32
2017-05-12T01:43:10.999Z,3.32
2017-05-12T01:45:40.171Z,3.00
2017-05-12T01:48:09.970Z,2.96
2017-05-12T01:50:38.325Z,2.72
2017-05-12T01:53:06.673Z,2.40
2017-05-12T01:55:35.737Z,2.40
2017-05-12T01:58:04.103Z,3.20
2017-05-12T02:00:32.442Z,2.42
2017-05-12T02:03:00.747Z,2.56
2017-05-12T02:05:29.058Z,2.80
2017-05-12T02:07:58.152Z,2.78
2017-05-12T02:10:26.451Z,2.50
2017-05-12T02:12:55.523Z,2.74
2017-05-12T02:15:23.849Z,2.36
2017-05-12T02:17:52.143Z,2.92
2017-05-12T02:20:21.274Z,2.38
2017-05-12T02:22:49.615Z,2.40
2017-05-12T02:25:17.905Z,3.52
2017-05-12T02:27:46.245Z,3.18
2017-05-12T02:30:14.677Z,3.08
2017-05-12T02:32:42.978Z,3.28
2017-05-12T02:35:12.038Z,3.20
2017-05-12T02:37:40.366Z,3.38
2017-05-12T02:40:09.435Z,3.12
2017-05-12T02:42:37.730Z,3.16
2017-05-12T02:45:06.873Z,3.28
2017-05-12T02:47:35.163Z,2.82
2017-05-12T02:50:03.463Z,3.24
2017-05-12T02:52:31.805Z,3.48
2017-05-12T02:55:00.101Z,3.50
2017-05-12T02:57:28.394Z,2.86
2017-05-12T02:59:56.724Z,2.34
2017-05-12T03:02:25.037Z,2.76
2017-05-12T03:04:53.333Z,2.44
2017-05-12T03:07:21.686Z,3.98
2017-05-12T03:09:49.987Z,3.02
2017-05-12T03:12:18.276Z,3.24
2017-05-12T03:14:46.648Z,3.48
2017-05-12T03:17:14.941Z,2.88
2017-05-12T03:19:44.002Z,3.02
2017-05-12T03:22:12.334Z,2.34
2017-05-12T03:24:40.637Z,2.84
2017-05-12T03:27:08.927Z,3.28
2017-05-12T03:29:37.275Z,3.60
2017-05-12T03:32:05.604Z,2.72
2017-05-12T03:34:33.902Z,3.30
2017-05-12T03:37:02.999Z,3.00
2017-05-12T03:39:32.063Z,3.74
2017-05-12T03:42:00.369Z,3.52
2017-05-12T03:44:29.461Z,3.90
2017-05-12T03:46:58.529Z,3.50
2017-05-12T03:49:26.870Z,4.24
2017-05-12T03:51:55.164Z,4.28
2017-05-12T03:54:23.455Z,4.94
2017-05-12T03:56:51.804Z,4.84
2017-05-12T03:59:20.096Z,4.22
2017-05-12T04:01:48.388Z,5.00
2017-05-12T04:04:16.726Z,5.24
2017-05-12T04:06:45.018Z,4.30
2017-05-12T04:09:13.322Z,5.30
2017-05-12T04:11:41.667Z,5.30
2017-05-12T04:14:09.964Z,4.92
2017-05-12T04:16:38.261Z,6.06
2017-05-12T04:19:06.602Z,6.12
2017-05-12T04:21:34.898Z,5.96
2017-05-12T04:24:03.970Z,6.66
2017-05-12T04:26:33.406Z,6.60
2017-05-12T04:29:01.763Z,7.64
2017-05-12T04:31:30.056Z,7.56
2017-05-12T04:33:58.390Z,7.06
2017-05-12T04:36:26.685Z,6.84
2017-05-12T04:38:54.975Z,8.30
2017-05-12T04:41:23.316Z,7.58
2017-05-12T04:43:51.608Z,7.18
2017-05-12T04:46:19.902Z,7.86
2017-05-12T04:48:48.249Z,8.06
2017-05-12T04:51:16.541Z,7.98
2017-05-12T04:53:44.841Z,8.18
2017-05-12T04:56:13.165Z,6.90
2017-05-12T04:58:42.221Z,7.76
2017-05-12T05:01:10.513Z,6.80
2017-05-12T05:03:38.862Z,7.84
2017-05-12T05:06:07.926Z,6.92
2017-05-12T05:08:36.227Z,6.22
2017-05-12T05:11:04.577Z,7.18
2017-05-12T05:13:32.879Z,6.46
2017-05-12T05:16:01.173Z,6.90
2017-05-12T05:18:29.532Z,6.60
2017-05-12T05:20:57.829Z,6.92
2017-05-12T05:23:26.118Z,6.60
2017-05-12T05:25:54.461Z,8.34
2017-05-12T05:28:22.779Z,7.38
2017-05-12T05:30:51.155Z,7.92
2017-05-12T05:33:19.497Z,7.76
2017-05-12T05:35:47.794Z,7.90
2017-05-12T05:38:16.249Z,8.86
2017-05-12T05:40:44.597Z,7.50
2017-05-12T05:43:13.662Z,8.44
2017-05-12T05:45:41.965Z,10.08
2017-05-12T05:48:11.065Z,6.94
2017-05-12T05:50:40.126Z,8.62
2017-05-12T05:53:08.431Z,7.66
2017-05-12T05:55:37.531Z,7.48
2017-05-12T05:58:06.589Z,7.70
2017-05-12T06:00:35.693Z,7.64
2017-05-12T06:03:03.987Z,7.48
2017-05-12T06:05:33.053Z,6.18
2017-05-12T06:08:01.465Z,6.84
2017-05-12T06:10:29.764Z,6.18
2017-05-12T06:12:58.066Z,5.46
2017-05-12T06:15:26.408Z,5.88
2017-05-12T06:17:55.470Z,6.46
2017-05-12T06:20:23.765Z,5.46
2017-05-12T06:22:52.097Z,5.72
2017-05-12T06:25:20.394Z,6.32
2017-05-12T06:27:48.702Z,5.08
2017-05-12T06:30:17.277Z,5.20
2017-05-12T06:32:45.585Z,5.46
2017-05-12T06:35:13.899Z,5.82
2017-05-12T06:37:42.993Z,5.76
2017-05-12T06:40:11.279Z,6.02
2017-05-12T06:42:39.578Z,5.62
2017-05-12T06:45:07.917Z,5.90
2017-05-12T06:47:36.241Z,6.36
2017-05-12T06:50:04.529Z,6.42
2017-05-12T06:52:33.625Z,5.56
2017-05-12T06:55:02.686Z,7.48
2017-05-12T06:57:30.984Z,7.44
2017-05-12T06:59:59.334Z,6.86
2017-05-12T07:02:27.649Z,8.90
2017-05-12T07:04:56.717Z,7.88
2017-05-12T07:07:25.063Z,7.98
2017-05-12T07:09:53.361Z,8.38
2017-05-12T07:12:21.689Z,9.30
2017-05-12T07:14:50.789Z,9.06
2017-05-12T07:17:19.846Z,8.20
2017-05-12T07:19:48.149Z,9.46
2017-05-12T07:22:17.260Z,9.00
2017-05-12T07:24:46.327Z,10.06
2017-05-12T07:27:15.443Z,10.08
2017-05-12T07:29:44.557Z,9.18
2017-05-12T07:32:12.851Z,9.38
2017-05-12T07:34:41.161Z,8.86
2017-05-12T07:37:09.489Z,9.10
2017-05-12T07:39:38.771Z,9.50
2017-05-12T07:42:07.929Z,9.02
2017-05-12T07:44:36.231Z,10.08
2017-05-12T07:47:05.310Z,8.32
2017-05-12T07:49:33.663Z,8.26
2017-05-12T07:52:01.955Z,7.62
2017-05-12T07:54:30.278Z,6.92
2017-05-12T07:56:58.636Z,7.50
2017-05-12T07:59:26.980Z,8.08
2017-05-12T08:01:56.006Z,6.98
2017-05-12T08:04:24.337Z,7.12
2017-05-12T08:06:52.635Z,7.10
2017-05-12T08:09:21.705Z,6.04
2017-05-12T08:11:50.028Z,7.94
2017-05-12T08:14:18.379Z,6.24
2017-05-12T08:16:47.435Z,7.28
2017-05-12T08:19:16.542Z,6.18
2017-05-12T08:21:45.614Z,6.64
2017-05-12T08:24:13.908Z,6.32
2017-05-12T08:26:43.021Z,6.74
2017-05-12T08:29:11.317Z,6.74
2017-05-12T08:31:39.608Z,6.36
2017-05-12T08:34:07.954Z,6.64
2017-05-12T08:36:36.378Z,5.50
2017-05-12T08:39:04.718Z,6.14
2017-05-12T08:41:33.053Z,6.12
2017-05-12T08:44:01.357Z,5.82
2017-05-12T08:46:30.425Z,5.40
2017-05-12T08:48:58.764Z,5.78
2017-05-12T08:51:27.071Z,5.16
2017-05-12T08:53:55.369Z,5.96
2017-05-12T08:56:23.708Z,5.58
2017-05-12T08:58:52.003Z,5.12
2017-05-12T09:01:21.416Z,5.64
2017-05-12T09:03:49.781Z,6.10
2017-05-12T09:06:18.201Z,6.32
2017-05-12T09:08:47.261Z,5.38
2017-05-12T09:11:15.601Z,5.18
2017-05-12T09:13:43.898Z,5.40
2017-05-12T09:16:12.200Z,5.32
2017-05-12T09:18:40.544Z,5.34
2017-05-12T09:21:08.833Z,6.18
2017-05-12T09:23:37.138Z,4.78
2017-05-12T09:26:05.505Z,5.08
2017-05-12T09:28:35.328Z,5.96
2017-05-12T09:31:03.670Z,5.96
2017-05-12T09:33:31.965Z,5.48
2017-05-12T09:36:00.263Z,4.22
2017-05-12T09:38:28.604Z,5.42
2017-05-12T09:40:57.697Z,5.40
2017-05-12T09:43:26.800Z,5.50
2017-05-12T09:45:55.089Z,5.60
2017-05-12T09:48:23.388Z,5.98
2017-05-12T09:50:51.716Z,5.76
2017-05-12T09:53:20.945Z,5.16
2017-05-12T09:55:49.238Z,5.48
2017-05-12T09:58:18.330Z,5.12
2017-05-12T10:00:46.621Z,4.50
2017-05-12T10:03:14.918Z,4.70
2017-05-12T10:05:44.037Z,4.86
2017-05-12T10:08:13.093Z,4.68
2017-05-12T10:10:42.193Z,4.80
2017-05-12T10:13:11.296Z,5.14
2017-05-12T10:15:40.363Z,5.04
2017-05-12T10:18:08.656Z,4.54
2017-05-12T10:20:37.769Z,5.68
2017-05-12T10:23:06.835Z,5.30
2017-05-12T10:25:35.945Z,5.78
2017-05-12T10:28:05.017Z,5.46
2017-05-12T10:30:33.312Z,5.32
2017-05-12T10:33:02.429Z,5.90
2017-05-12T10:35:31.503Z,6.16
2017-05-12T10:37:59.800Z,5.38
2017-05-12T10:40:28.137Z,6.06
2017-05-12T10:42:56.454Z,6.20
2017-05-12T10:45:25.521Z,5.40
2017-05-12T10:47:53.865Z,5.60
2017-05-12T10:50:22.157Z,5.52
2017-05-12T10:52:51.220Z,4.66
2017-05-12T10:55:20.333Z,5.36
2017-05-12T10:57:48.622Z,3.92
2017-05-12T11:00:17.741Z,4.02
2017-05-12T11:02:46.869Z,4.64
2017-05-12T11:05:16.038Z,4.28
2017-05-12T11:07:44.367Z,4.24
2017-05-12T11:10:12.693Z,5.80
2017-05-12T11:12:40.982Z,4.46
2017-05-12T11:15:10.042Z,4.68
2017-05-12T11:17:39.164Z,4.88
2017-05-12T11:20:07.461Z,4.30
2017-05-12T11:22:36.524Z,4.18
2017-05-12T11:25:04.858Z,4.20
2017-05-12T11:27:33.932Z,3.86
2017-05-12T11:30:02.241Z,4.34
2017-05-12T11:32:30.581Z,3.68
2017-05-12T11:34:59.641Z,4.60
2017-05-12T11:37:28.773Z,4.18
2017-05-12T11:39:57.836Z,3.42
2017-05-12T11:42:27.669Z,3.80
2017-05-12T11:44:55.988Z,3.70
2017-05-12T11:47:24.284Z,3.04
2017-05-12T11:49:52.790Z,2.90
2017-05-12T11:52:21.086Z,3.02
2017-05-12T11:54:50.978Z,3.20
2017-05-12T11:57:19.278Z,2.98
2017-05-12T11:59:48.356Z,2.94
2017-05-12T12:02:16.694Z,3.92
2017-05-12T12:04:45.116Z,3.20
2017-05-12T12:07:13.412Z,4.22
2017-05-12T12:09:42.848Z,3.94
2017-05-12T12:12:11.141Z,4.22
2017-05-12T12:14:40.205Z,4.64
2017-05-12T12:17:08.548Z,4.10
2017-05-12T12:19:36.964Z,5.72
2017-05-12T12:22:05.260Z,3.92
2017-05-12T12:24:33.668Z,3.38
2017-05-12T12:27:01.961Z,3.56
2017-05-12T12:29:30.290Z,3.74
2017-05-12T12:31:59.394Z,3.54
2017-05-12T12:34:27.688Z,3.80
2017-05-12T12:36:55.985Z,3.78
2017-05-12T12:39:25.822Z,3.56
2017-05-12T12:41:54.893Z,3.30
2017-05-12T12:44:23.236Z,2.80
2017-05-12T12:46:51.528Z,3.30
2017-05-12T12:49:19.826Z,2.40
2017-05-12T12:51:48.159Z,3.44
2017-05-12T12:54:16.479Z,2.60
2017-05-12T12:56:44.822Z,3.70
2017-05-12T12:59:13.123Z,3.60
2017-05-12T13:01:41.418Z,3.50
2017-05-12T13:04:09.757Z,2.74
2017-05-12T13:06:38.053Z,2.80
2017-05-12T13:09:06.353Z,3.30
2017-05-12T13:11:34.692Z,3.02
2017-05-12T13:14:03.174Z,3.06
2017-05-12T13:16:32.241Z,2.50
2017-05-12T13:19:01.609Z,2.44
2017-05-12T13:21:30.669Z,3.02
2017-05-12T13:23:59.000Z,3.24
2017-05-12T13:26:27.294Z,2.28
2017-05-12T13:28:56.350Z,2.34
2017-05-12T13:31:24.690Z,2.38
2017-05-12T13:33:53.024Z,2.06
2017-05-12T13:36:21.381Z,2.50
2017-05-12T13:38:49.719Z,2.10
2017-05-12T13:41:18.014Z,1.98
2017-05-12T13:43:46.371Z,2.64
2017-05-12T13:46:14.711Z,2.78
2017-05-12T13:48:44.099Z,2.66
2017-05-12T13:51:12.396Z,2.72
2017-05-12T13:53:42.421Z,2.64
2017-05-12T13:56:11.533Z,3.36
2017-05-12T13:58:40.599Z,2.70
2017-05-12T14:01:08.901Z,3.10
2017-05-12T14:03:37.993Z,3.00
2017-05-12T14:06:07.066Z,2.44
2017-05-12T14:08:35.373Z,3.14
2017-05-12T14:11:04.483Z,2.44
2017-05-12T14:13:32.784Z,3.54
2017-05-12T14:16:01.090Z,1.62
2017-05-12T14:18:29.437Z,2.16
2017-05-12T14:20:57.730Z,2.18
2017-05-12T14:23:26.022Z,2.20
2017-05-12T14:25:54.365Z,2.32
2017-05-12T14:28:22.671Z,3.74
2017-05-12T14:30:50.964Z,3.02
2017-05-12T14:33:19.302Z,2.98
2017-05-12T14:35:47.611Z,2.84
2017-05-12T14:38:15.910Z,1.22
2017-05-12T14:40:45.016Z,1.38
2017-05-12T14:43:13.401Z,1.18
2017-05-12T14:45:41.713Z,0.80
2017-05-12T14:48:10.065Z,0.74
2017-05-12T14:50:38.368Z,0.78
2017-05-12T14:53:06.674Z,0.86
2017-05-12T14:55:35.002Z,0.68
2017-05-12T14:58:03.468Z,0.58
2017-05-12T15:00:32.529Z,0.80
2017-05-12T15:03:00.903Z,0.90
2017-05-12T15:05:29.193Z,0.60
2017-05-12T15:07:57.486Z,0.50
2017-05-12T15:10:26.599Z,0.70
2017-05-12T15:12:54.913Z,0.60
2017-05-12T15:15:23.236Z,0.50
2017-05-12T15:17:52.338Z,0.72
2017-05-12T15:20:21.398Z,0.86
2017-05-12T15:22:49.690Z,1.00
2017-05-12T15:25:18.053Z,0.54
2017-05-12T15:27:46.349Z,0.84
2017-05-12T15:30:16.215Z,0.94
2017-05-12T15:32:44.533Z,1.00
2017-05-12T15:35:12.835Z,1.60
2017-05-12T15:37:41.948Z,1.28
2017-05-12T15:40:10.409Z,1.10
2017-05-12T15:42:38.719Z,1.30
2017-05-12T15:45:07.919Z,1.50
2017-05-12T15:47:36.981Z,1.64
2017-05-12T15:50:06.826Z,1.10
2017-05-12T15:52:35.894Z,1.24
2017-05-12T15:55:04.774Z,1.58
2017-05-12T15:57:33.111Z,0.96
2017-05-12T16:00:02.191Z,0.78
2017-05-12T16:02:31.347Z,0.96
2017-05-12T16:04:59.640Z,0.82
2017-05-12T16:07:27.930Z,0.80
2017-05-12T16:09:57.162Z,1.00
2017-05-12T16:12:25.458Z,1.28
2017-05-12T16:14:53.845Z,0.88
2017-05-12T16:17:22.196Z,0.84
2017-05-12T16:19:50.961Z,0.74
2017-05-12T16:22:20.753Z,0.70
2017-05-12T16:24:49.839Z,0.80
2017-05-12T16:27:18.959Z,0.62
2017-05-12T16:29:48.066Z,0.92
2017-05-12T16:32:16.363Z,0.92
2017-05-12T16:34:45.837Z,1.02
2017-05-12T16:37:14.957Z,0.76
2017-05-12T16:39:43.248Z,0.90
2017-05-12T16:42:12.310Z,1.00
2017-05-12T16:44:41.412Z,0.82
2017-05-12T16:47:10.476Z,0.88
2017-05-12T16:49:39.034Z,0.92
2017-05-12T16:52:07.573Z,0.96
2017-05-12T16:54:35.938Z,0.76
2017-05-12T16:57:05.002Z,1.10
2017-05-12T16:59:33.333Z,0.88
2017-05-12T17:02:02.391Z,1.02
2017-05-12T17:04:30.686Z,1.02
2017-05-12T17:06:59.791Z,0.60
2017-05-12T17:09:28.857Z,1.04
2017-05-12T17:11:57.217Z,1.04
2017-05-12T17:14:25.849Z,2.14
2017-05-12T17:16:54.153Z,1.06
2017-05-12T17:19:22.450Z,1.26
2017-05-12T17:21:50.787Z,1.30
2017-05-12T17:24:19.089Z,1.94
2017-05-12T17:26:48.151Z,2.16
2017-05-12T17:29:17.262Z,1.70
2017-05-12T17:31:46.328Z,2.92
2017-05-12T17:34:15.417Z,2.12
2017-05-12T17:36:44.485Z,2.24
2017-05-12T17:39:12.828Z,2.02
2017-05-12T17:41:41.183Z,2.36
2017-05-12T17:44:10.249Z,2.42
2017-05-12T17:46:38.560Z,2.40
2017-05-12T17:49:07.670Z,2.64
2017-05-12T17:51:35.968Z,2.24
2017-05-12T17:54:05.042Z,2.54
2017-05-12T17:56:33.385Z,2.32
2017-05-12T17:59:02.456Z,2.70
2017-05-12T18:01:30.749Z,1.76
2017-05-12T18:03:59.857Z,2.20
2017-05-12T18:06:28.153Z,1.76
2017-05-12T18:08:57.210Z,2.32
2017-05-12T18:11:27.057Z,2.20
2017-05-12T18:13:56.117Z,1.66
2017-05-12T18:16:25.221Z,2.74
2017-05-12T18:18:53.525Z,2.84
2017-05-12T18:21:22.583Z,2.50
2017-05-12T18:23:50.917Z,2.22
2017-05-12T18:26:19.990Z,2.16
2017-05-12T18:28:49.262Z,1.88
2017-05-12T18:31:18.319Z,1.88
2017-05-12T18:33:46.613Z,2.48
2017-05-12T18:36:14.945Z,3.00
2017-05-12T18:38:44.016Z,2.56
2017-05-12T18:41:12.318Z,2.96
2017-05-12T18:43:41.425Z,2.70
2017-05-12T18:46:09.724Z,3.12
2017-05-12T18:48:38.034Z,2.46
2017-05-12T18:51:06.369Z,3.00
2017-05-12T18:53:34.688Z,3.20
2017-05-12T18:56:04.608Z,2.32
2017-05-12T18:58:32.915Z,2.70
2017-05-12T19:01:01.986Z,2.44
2017-05-12T19:03:31.888Z,2.10
2017-05-12T19:06:00.959Z,1.90
2017-05-12T19:08:30.061Z,2.14
2017-05-12T19:10:58.362Z,2.10
2017-05-12T19:13:26.661Z,1.88
2017-05-12T19:15:55.775Z,1.74
2017-05-12T19:18:24.842Z,1.76
2017-05-12T19:20:53.144Z,1.52
2017-05-12T19:23:21.803Z,1.70
2017-05-12T19:25:50.105Z,1.74
2017-05-12T19:28:19.166Z,1.50
2017-05-12T19:30:47.510Z,1.40
2017-05-12T19:33:15.933Z,1.52
2017-05-12T19:35:44.271Z,1.20
2017-05-12T19:38:12.603Z,1.50
2017-05-12T19:40:41.665Z,1.72
2017-05-12T19:43:09.963Z,1.50
2017-05-12T19:45:38.327Z,1.98
2017-05-12T19:48:06.618Z,1.60
2017-05-12T19:50:34.917Z,1.36
2017-05-12T19:53:04.027Z,1.78
2017-05-12T19:55:32.334Z,1.70
2017-05-12T19:58:00.625Z,1.88
2017-05-12T20:00:28.966Z,2.20
2017-05-12T20:02:57.313Z,2.22
2017-05-12T20:05:26.378Z,2.16
2017-05-12T20:07:54.724Z,2.08
2017-05-12T20:10:23.105Z,2.38
2017-05-12T20:12:51.406Z,2.16
2017-05-12T20:15:19.742Z,2.24
2017-05-12T20:17:48.042Z,2.36
2017-05-12T20:20:16.346Z,2.42
2017-05-12T20:22:44.793Z,3.68
2017-05-12T20:25:13.214Z,2.40
2017-05-12T20:27:41.572Z,2.42
2017-05-12T20:30:09.912Z,2.48
2017-05-12T20:32:38.214Z,3.14
2017-05-12T20:35:06.511Z,2.82
2017-05-12T20:37:35.618Z,2.42
2017-05-12T20:40:03.925Z,2.36
2017-05-12T20:42:33.258Z,2.94
2017-05-12T20:45:01.594Z,2.40
2017-05-12T20:47:30.657Z,2.92
2017-05-12T20:49:58.954Z,2.90
2017-05-12T20:52:27.299Z,2.28
2017-05-12T20:54:56.358Z,2.60
2017-05-12T20:57:26.217Z,2.66
2017-05-12T20:59:54.516Z,2.56
2017-05-12T21:02:22.979Z,3.06
2017-05-12T21:04:51.319Z,2.84
2017-05-12T21:07:19.633Z,2.96
2017-05-12T21:09:47.921Z,3.36
2017-05-12T21:12:17.015Z,4.58
2017-05-12T21:14:45.311Z,2.94
2017-05-12T21:17:13.627Z,3.52
2017-05-12T21:19:41.978Z,3.30
2017-05-12T21:22:11.045Z,3.18
2017-05-12T21:24:39.346Z,2.78
2017-05-12T21:27:08.456Z,4.38
2017-05-12T21:29:37.521Z,4.88
2017-05-12T21:32:05.822Z,6.06
2017-05-12T21:34:34.933Z,4.70
2017-05-12T21:37:03.231Z,3.92
2017-05-12T21:39:31.557Z,3.78
2017-05-12T21:42:01.396Z,3.72
2017-05-12T21:44:29.689Z,3.18
2017-05-12T21:46:57.985Z,3.72
2017-05-12T21:49:27.095Z,2.80
2017-05-12T21:51:55.542Z,3.32
2017-05-12T21:54:23.834Z,2.70
2017-05-12T21:56:52.167Z,3.30
2017-05-12T21:59:21.223Z,3.70
2017-05-12T22:01:49.523Z,4.30
2017-05-12T22:04:17.863Z,3.74
2017-05-12T22:06:46.154Z,3.36
2017-05-12T22:09:14.448Z,8.02
2017-05-12T22:11:42.786Z,6.24
2017-05-12T22:14:11.090Z,3.50
2017-05-12T22:16:39.406Z,3.00
2017-05-12T22:19:08.504Z,3.90
2017-05-12T22:21:37.562Z,4.16
2017-05-12T22:24:05.856Z,3.12
2017-05-12T22:26:35.690Z,2.86
2017-05-12T22:29:04.749Z,3.50
2017-05-12T22:31:33.701Z,3.26
2017-05-12T22:34:02.045Z,4.48
2017-05-12T22:36:31.242Z,4.14
2017-05-12T22:39:00.341Z,3.36
2017-05-12T22:41:29.462Z,3.08
2017-05-12T22:43:57.782Z,4.08
2017-05-12T22:46:26.429Z,3.84
2017-05-12T22:48:54.721Z,4.74
2017-05-12T22:51:23.013Z,3.94
2017-05-12T22:53:51.346Z,4.38
2017-05-12T22:56:20.423Z,4.46
2017-05-12T22:58:49.550Z,4.72
2017-05-12T23:01:17.837Z,5.84
2017-05-12T23:03:46.131Z,4.42
2017-05-12T23:06:14.472Z,4.24
2017-05-12T23:08:44.122Z,4.10
2017-05-12T23:11:12.460Z,3.84
2017-05-12T23:13:40.822Z,3.94
2017-05-12T23:16:09.877Z,3.72
2017-05-12T23:18:38.166Z,3.08
2017-05-12T23:21:06.510Z,3.64
2017-05-12T23:23:34.801Z,3.38
2017-05-12T23:26:03.865Z,3.80
2017-05-12T23:28:32.200Z,3.62
2017-05-12T23:31:01.281Z,3.26
2017-05-12T23:33:29.569Z,2.50
2017-05-12T23:35:58.735Z,3.04
2017-05-12T23:38:27.793Z,3.42
2017-05-12T23:40:56.917Z,2.34
2017-05-12T23:43:25.209Z,3.20
2017-05-12T23:45:53.541Z,2.74
2017-05-12T23:48:22.675Z,3.42
2017-05-12T23:50:51.807Z,3.48
2017-05-12T23:53:20.098Z,3.04
2017-05-12T23:55:48.425Z,3.52
2017-05-12T23:58:16.731Z,3.52
